createdAt,value
2023-04-09T00:02:53.953Z,20.40
2023-04-09T00:05:58.074Z,20.80
2023-04-09T00:09:02.027Z,17.50
2023-04-09T00:12:06.092Z,19.60
2023-04-09T00:15:15.037Z,20.70
2023-04-09T00:18:25.369Z,21.40
2023-04-09T00:21:29.403Z,18.20
2023-04-09T00:24:33.422Z,18.20
2023-04-09T00:27:37.718Z,17.70
2023-04-09T00:30:41.643Z,14.90
2023-04-09T00:33:45.569Z,16.60
2023-04-09T00:36:49.477Z,15.40
2023-04-09T00:39:53.726Z,18.70
2023-04-09T00:42:57.718Z,18.40
2023-04-09T00:46:04.553Z,18.90
2023-04-09T00:49:09.552Z,19.80
2023-04-09T00:52:13.661Z,15.40
2023-04-09T00:55:18.806Z,18.60
2023-04-09T00:58:22.907Z,15.60
2023-04-09T01:01:26.969Z,19.10
2023-04-09T01:04:31.252Z,18.90
2023-04-09T01:07:39.504Z,19.60
2023-04-09T01:11:09.301Z,19.20
2023-04-09T01:14:52.292Z,17.80
2023-04-09T01:18:02.348Z,16.00
2023-04-09T01:21:12.123Z,18.90
2023-04-09T01:24:42.861Z,16.00
2023-04-09T01:28:15.038Z,20.90
2023-04-09T01:31:21.476Z,18.10
2023-04-09T01:34:27.165Z,16.70
2023-04-09T01:37:32.718Z,16.00
2023-04-09T01:40:37.522Z,17.80
2023-04-09T01:43:42.437Z,21.30
2023-04-09T01:46:51.652Z,18.20
2023-04-09T01:49:55.748Z,17.30
2023-04-09T01:53:01.629Z,18.10
2023-04-09T01:56:06.015Z,17.10
2023-04-09T01:59:10.757Z,18.20
2023-04-09T02:02:24.308Z,18.00
2023-04-09T02:05:36.403Z,16.30
2023-04-09T02:08:46.472Z,21.50
2023-04-09T02:11:51.297Z,17.80
2023-04-09T02:14:56.227Z,16.90
2023-04-09T02:18:00.325Z,18.70
2023-04-09T02:21:06.000Z,18.50
2023-04-09T02:24:10.191Z,19.90
2023-04-09T02:27:14.338Z,18.10
2023-04-09T02:30:18.507Z,18.30
2023-04-09T02:33:22.692Z,19.70
2023-04-09T02:36:28.327Z,18.70
2023-04-09T02:39:32.563Z,20.80
2023-04-09T02:42:36.588Z,21.00
2023-04-09T02:45:40.601Z,16.90
2023-04-09T02:48:44.563Z,19.50
2023-04-09T02:51:48.465Z,18.30
2023-04-09T02:54:52.847Z,18.30
2023-04-09T02:57:56.862Z,18.60
2023-04-09T03:01:00.793Z,18.50
2023-04-09T03:04:05.031Z,18.10
2023-04-09T03:07:09.320Z,18.00
2023-04-09T03:10:13.544Z,17.30
2023-04-09T03:13:17.660Z,18.80
2023-04-09T03:16:21.836Z,19.70
2023-04-09T03:19:25.996Z,17.10
2023-04-09T03:22:30.116Z,18.10
2023-04-09T03:25:34.244Z,20.10
2023-04-09T03:28:41.526Z,17.60
2023-04-09T03:31:45.795Z,19.90
2023-04-09T03:37:57.167Z,18.00
2023-04-09T03:41:01.281Z,19.00
2023-04-09T03:47:15.663Z,20.40
2023-04-09T03:50:20.717Z,16.70
2023-04-09T03:53:28.090Z,18.60
2023-04-09T03:56:37.223Z,20.50
2023-04-09T03:59:46.073Z,17.40
2023-04-09T04:02:52.446Z,18.30
2023-04-09T04:06:07.031Z,17.80
2023-04-09T04:09:30.564Z,17.50
2023-04-09T04:12:38.880Z,18.20
2023-04-09T04:15:48.015Z,17.50
2023-04-09T04:18:53.249Z,18.20
2023-04-09T04:21:58.089Z,18.90
2023-04-09T04:25:03.642Z,17.80
2023-04-09T04:28:07.760Z,21.20
2023-04-09T04:31:16.104Z,21.90
2023-04-09T04:34:21.322Z,18.30
2023-04-09T04:37:31.236Z,18.60
2023-04-09T04:40:37.042Z,20.90
2023-04-09T04:43:41.609Z,21.80
2023-04-09T04:46:47.622Z,17.80
2023-04-09T04:49:52.486Z,20.60
2023-04-09T04:52:57.909Z,18.50
2023-04-09T04:56:05.464Z,18.50
2023-04-09T04:59:09.735Z,19.40
2023-04-09T05:02:32.453Z,19.90
2023-04-09T05:05:55.236Z,20.00
2023-04-09T05:09:01.717Z,19.60
2023-04-09T05:12:13.744Z,19.40
2023-04-09T05:15:18.143Z,22.40
2023-04-09T05:18:23.189Z,20.80
2023-04-09T05:21:31.912Z,22.80
2023-04-09T05:24:37.870Z,20.70
2023-04-09T05:27:42.853Z,21.50
2023-04-09T05:33:53.093Z,19.50
2023-04-09T05:37:01.107Z,17.80
2023-04-09T05:43:10.345Z,22.40
2023-04-09T05:46:17.459Z,20.60
2023-04-09T05:49:21.883Z,21.80
2023-04-09T05:52:27.837Z,21.20
2023-04-09T05:55:33.014Z,18.10
2023-04-09T05:58:38.430Z,16.50
2023-04-09T06:01:42.577Z,18.30
2023-04-09T06:04:46.802Z,20.30
2023-04-09T06:07:51.813Z,23.30
2023-04-09T06:10:55.924Z,20.70
2023-04-09T06:14:00.433Z,29.30
2023-04-09T06:17:04.468Z,27.40
2023-04-09T06:20:09.411Z,27.40
2023-04-09T06:23:13.528Z,24.70
2023-04-09T06:26:17.822Z,25.40
2023-04-09T06:29:24.295Z,26.00
2023-04-09T06:32:28.492Z,22.00
2023-04-09T06:35:32.828Z,23.50
2023-04-09T06:38:36.851Z,25.00
2023-04-09T06:41:40.810Z,19.10
2023-04-09T06:44:58.753Z,16.80
2023-04-09T06:48:02.794Z,16.70
2023-04-09T06:51:07.478Z,16.70
2023-04-09T06:57:15.307Z,15.70
2023-04-09T07:00:19.575Z,16.10
2023-04-09T07:03:23.794Z,14.20
2023-04-09T07:06:27.931Z,16.60
2023-04-09T07:09:31.966Z,15.30
2023-04-09T07:12:36.090Z,16.00
2023-04-09T07:15:40.622Z,13.80
2023-04-09T07:18:47.057Z,12.20
2023-04-09T07:21:51.086Z,11.80
2023-04-09T07:24:55.264Z,10.40
2023-04-09T07:27:59.285Z,13.00
2023-04-09T07:31:03.868Z,10.90
2023-04-09T07:34:07.986Z,13.40
2023-04-09T07:37:12.621Z,11.30
2023-04-09T07:40:16.757Z,11.40
2023-04-09T07:43:22.500Z,11.40
2023-04-09T07:46:26.643Z,8.70
2023-04-09T07:49:30.752Z,8.90
2023-04-09T07:52:34.674Z,8.60
2023-04-09T07:55:38.628Z,8.80
2023-04-09T07:58:42.687Z,11.00
2023-04-09T08:01:46.717Z,9.50
2023-04-09T08:04:51.449Z,11.20
2023-04-09T08:07:55.558Z,11.50
2023-04-09T08:10:59.568Z,10.60
2023-04-09T08:14:04.813Z,9.10
2023-04-09T08:17:08.715Z,10.10
2023-04-09T08:20:12.962Z,9.10
2023-04-09T08:23:16.972Z,9.10
2023-04-09T08:26:20.901Z,8.10
2023-04-09T08:29:24.817Z,9.90
2023-04-09T08:32:28.800Z,10.10
2023-04-09T08:35:32.916Z,11.20
2023-04-09T08:38:37.246Z,9.80
2023-04-09T08:41:46.273Z,9.40
2023-04-09T08:44:50.379Z,10.70
2023-04-09T08:47:54.394Z,9.60
2023-04-09T08:50:58.509Z,10.70
2023-04-09T08:54:04.698Z,11.70
2023-04-09T08:57:09.442Z,9.80
2023-04-09T09:00:14.072Z,10.50
2023-04-09T09:03:18.404Z,8.60
2023-04-09T09:06:24.018Z,9.30
2023-04-09T09:09:28.050Z,11.00
2023-04-09T09:12:32.741Z,9.90
2023-04-09T09:15:36.692Z,9.70
2023-04-09T09:18:44.815Z,8.60
2023-04-09T09:22:05.120Z,11.00
2023-04-09T09:25:13.155Z,9.00
2023-04-09T09:28:17.232Z,12.10
2023-04-09T09:31:23.009Z,10.10
2023-04-09T09:34:27.119Z,9.70
2023-04-09T09:37:31.556Z,9.90
2023-04-09T09:40:35.756Z,10.70
2023-04-09T09:43:42.714Z,8.60
2023-04-09T09:46:46.714Z,8.80
2023-04-09T09:49:51.676Z,9.80
2023-04-09T09:53:03.805Z,9.70
2023-04-09T09:56:19.352Z,10.00
2023-04-09T09:59:30.726Z,8.60
2023-04-09T10:02:45.101Z,9.40
2023-04-09T10:05:50.145Z,8.50
2023-04-09T10:08:58.306Z,7.90
2023-04-09T10:12:05.102Z,9.20
2023-04-09T10:15:10.150Z,12.70
2023-04-09T10:18:16.166Z,9.10
2023-04-09T10:21:26.840Z,10.60
2023-04-09T10:24:33.665Z,8.40
2023-04-09T10:27:37.636Z,10.50
2023-04-09T10:30:41.625Z,8.90
2023-04-09T10:33:46.027Z,8.80
2023-04-09T10:36:57.262Z,7.60
2023-04-09T10:40:03.989Z,8.80
2023-04-09T10:43:10.498Z,10.30
2023-04-09T10:46:34.107Z,8.30
2023-04-09T10:49:42.220Z,8.60
2023-04-09T10:52:46.938Z,9.30
2023-04-09T10:55:53.127Z,7.90
2023-04-09T10:58:57.115Z,13.20
2023-04-09T11:02:01.137Z,7.90
2023-04-09T11:05:17.576Z,7.80
2023-04-09T11:11:27.619Z,8.50
2023-04-09T11:14:31.839Z,7.10
2023-04-09T11:17:37.077Z,8.80
2023-04-09T11:20:41.345Z,7.30
2023-04-09T11:26:56.820Z,7.80
2023-04-09T11:30:00.825Z,6.50
2023-04-09T11:33:04.866Z,7.40
2023-04-09T11:36:09.168Z,7.80
2023-04-09T11:39:13.379Z,8.00
2023-04-09T11:42:17.765Z,9.80
2023-04-09T11:45:28.029Z,8.00
2023-04-09T11:48:32.175Z,7.20
2023-04-09T11:51:36.892Z,7.30
2023-04-09T11:54:40.832Z,8.10
2023-04-09T11:57:46.986Z,10.40
2023-04-09T12:00:55.343Z,8.40
2023-04-09T12:04:00.851Z,12.80
2023-04-09T12:07:09.817Z,9.80
2023-04-09T12:10:14.036Z,13.80
2023-04-09T12:13:17.993Z,13.70
2023-04-09T12:16:22.087Z,16.50
2023-04-09T12:19:26.480Z,14.70
2023-04-09T12:22:30.493Z,10.90
2023-04-09T12:25:36.966Z,10.60
2023-04-09T12:28:41.287Z,9.70
2023-04-09T12:31:46.355Z,9.50
2023-04-09T12:34:50.321Z,8.60
2023-04-09T12:37:54.335Z,7.70
2023-04-09T12:40:58.376Z,7.20
2023-04-09T12:44:02.322Z,8.30
2023-04-09T12:47:06.702Z,8.50
2023-04-09T12:50:13.012Z,8.40
2023-04-09T12:53:17.000Z,7.90
2023-04-09T12:56:21.017Z,8.10
2023-04-09T12:59:24.974Z,6.50
2023-04-09T13:02:29.017Z,7.20
2023-04-09T13:05:35.615Z,9.00
2023-04-09T13:08:39.517Z,8.30
2023-04-09T13:11:43.551Z,7.10
2023-04-09T13:14:48.809Z,7.60
2023-04-09T13:17:52.982Z,7.60
2023-04-09T13:20:57.114Z,7.50
2023-04-09T13:24:01.354Z,7.10
2023-04-09T13:27:07.127Z,6.80
2023-04-09T13:30:11.343Z,6.80
2023-04-09T13:33:15.546Z,6.90
2023-04-09T13:36:19.450Z,7.20
2023-04-09T13:39:23.488Z,8.30
2023-04-09T13:42:27.914Z,7.60
2023-04-09T13:48:35.936Z,6.50
2023-04-09T13:51:40.365Z,6.60
2023-04-09T13:57:48.279Z,6.50
2023-04-09T14:00:52.805Z,7.00
2023-04-09T14:07:01.422Z,6.40
2023-04-09T14:10:06.643Z,7.70
2023-04-09T14:13:12.251Z,7.20
2023-04-09T14:16:16.533Z,7.90
2023-04-09T14:19:20.598Z,6.60
2023-04-09T14:22:25.333Z,7.00
2023-04-09T14:25:29.370Z,7.20
2023-04-09T14:28:33.592Z,8.30
2023-04-09T14:31:37.599Z,6.90
2023-04-09T14:34:41.714Z,7.30
2023-04-09T14:37:47.051Z,7.20
2023-04-09T14:40:51.799Z,8.70
2023-04-09T14:43:55.765Z,6.80
2023-04-09T14:47:00.055Z,7.00
2023-04-09T14:50:04.449Z,7.20
2023-04-09T14:53:08.667Z,7.60
2023-04-09T14:56:12.566Z,7.50
2023-04-09T14:59:16.500Z,8.40
2023-04-09T15:02:20.696Z,12.20
2023-04-09T15:08:28.843Z,12.80
2023-04-09T15:11:32.962Z,8.80
2023-04-09T15:14:37.100Z,11.10
2023-04-09T15:17:41.230Z,10.00
2023-04-09T15:20:45.730Z,8.70
2023-04-09T15:23:53.233Z,10.70
2023-04-09T15:26:57.756Z,11.40
2023-04-09T15:30:02.122Z,10.30
2023-04-09T15:36:10.968Z,12.30
2023-04-09T15:39:15.353Z,8.80
2023-04-09T15:42:22.919Z,11.00
2023-04-09T15:45:27.145Z,11.50
2023-04-09T15:48:31.534Z,9.30
2023-04-09T15:51:35.592Z,11.40
2023-04-09T15:54:39.552Z,11.40
2023-04-09T15:57:46.866Z,8.60
2023-04-09T16:00:51.718Z,9.40
2023-04-09T16:03:55.738Z,10.90
2023-04-09T16:06:59.892Z,9.10
2023-04-09T16:10:04.785Z,8.80
2023-04-09T16:13:08.695Z,7.90
2023-04-09T16:16:12.679Z,10.20
2023-04-09T16:19:17.820Z,10.40
2023-04-09T16:22:21.814Z,9.30
2023-04-09T16:25:25.828Z,9.50
2023-04-09T16:28:29.851Z,8.20
2023-04-09T16:31:34.386Z,9.40
2023-04-09T16:34:38.396Z,10.60
2023-04-09T16:37:42.346Z,7.10
2023-04-09T16:40:46.708Z,8.70
2023-04-09T16:43:51.234Z,10.00
2023-04-09T16:46:56.547Z,11.20
2023-04-09T16:50:01.027Z,13.80
2023-04-09T16:53:05.044Z,13.20
2023-04-09T16:56:09.595Z,10.40
2023-04-09T17:02:21.745Z,10.50
2023-04-09T17:05:26.017Z,10.60
2023-04-09T17:08:30.134Z,10.00
2023-04-09T17:11:34.518Z,12.10
2023-04-09T17:14:38.980Z,15.90
2023-04-09T17:17:45.253Z,13.90
2023-04-09T17:20:49.592Z,12.00
2023-04-09T17:23:53.694Z,12.60
2023-04-09T17:26:57.627Z,12.20
2023-04-09T17:30:02.648Z,13.50
2023-04-09T17:33:06.662Z,11.80
2023-04-09T17:36:10.927Z,10.20
2023-04-09T17:42:19.741Z,11.00
2023-04-09T17:45:23.854Z,9.20
2023-04-09T17:48:30.101Z,11.50
2023-04-09T17:51:35.774Z,9.40
2023-04-09T17:54:39.666Z,11.80
2023-04-09T17:57:43.677Z,12.00
2023-04-09T18:00:47.724Z,12.10
2023-04-09T18:03:51.837Z,11.50
2023-04-09T18:06:56.672Z,9.80
2023-04-09T18:13:06.242Z,12.30
2023-04-09T18:19:15.594Z,14.10
2023-04-09T18:22:19.640Z,22.60
2023-04-09T18:25:23.935Z,21.70
2023-04-09T18:28:28.190Z,13.60
2023-04-09T18:31:32.510Z,9.90
2023-04-09T18:34:37.423Z,9.40
2023-04-09T18:37:41.436Z,10.50
2023-04-09T18:40:45.466Z,10.20
2023-04-09T18:43:49.502Z,14.70
2023-04-09T18:46:53.514Z,14.90
2023-04-09T18:49:57.804Z,11.60
2023-04-09T18:53:03.702Z,13.70
2023-04-09T18:56:08.082Z,16.10
2023-04-09T18:59:12.315Z,15.20
2023-04-09T19:02:16.412Z,14.20
2023-04-09T19:05:20.653Z,16.50
2023-04-09T19:08:24.608Z,14.80
2023-04-09T19:11:28.594Z,16.70
2023-04-09T19:14:32.605Z,17.30
2023-04-09T19:17:36.635Z,18.50
2023-04-09T19:20:40.943Z,22.40
2023-04-09T19:23:45.808Z,19.60
2023-04-09T19:26:51.028Z,22.20
2023-04-09T19:29:56.272Z,17.50
2023-04-09T19:33:00.352Z,13.40
2023-04-09T19:36:04.742Z,14.20
2023-04-09T19:39:11.097Z,11.00
2023-04-09T19:42:15.039Z,12.30
2023-04-09T19:45:19.003Z,9.70
2023-04-09T19:48:23.703Z,10.90
2023-04-09T19:51:27.649Z,14.00
2023-04-09T19:54:33.058Z,11.90
2023-04-09T19:57:37.121Z,15.40
2023-04-09T20:00:41.319Z,23.00
2023-04-09T20:03:45.801Z,26.20
2023-04-09T20:06:51.710Z,20.80
2023-04-09T20:09:55.625Z,25.60
2023-04-09T20:12:59.505Z,20.00
2023-04-09T20:16:03.899Z,15.80
2023-04-09T20:19:07.826Z,13.40
2023-04-09T20:22:11.799Z,21.20
2023-04-09T20:25:15.847Z,25.00
2023-04-09T20:28:19.751Z,37.10
2023-04-09T20:31:23.767Z,16.10
2023-04-09T20:34:27.964Z,33.50
2023-04-09T20:37:31.895Z,22.00
2023-04-09T20:40:37.671Z,17.80
2023-04-09T20:43:41.756Z,24.10
2023-04-09T20:46:46.080Z,21.10
2023-04-09T20:49:51.317Z,17.20
2023-04-09T20:52:55.834Z,20.40
2023-04-09T20:59:03.855Z,16.00
2023-04-09T21:02:08.883Z,14.70
2023-04-09T21:05:22.856Z,16.00
2023-04-09T21:08:29.376Z,17.30
2023-04-09T21:11:33.347Z,25.30
2023-04-09T21:14:37.381Z,18.10
2023-04-09T21:17:41.383Z,13.70
2023-04-09T21:20:46.379Z,16.80
2023-04-09T21:23:50.444Z,22.80
2023-04-09T21:26:54.387Z,21.50
2023-04-09T21:29:58.950Z,20.10
2023-04-09T21:36:08.141Z,9.30
2023-04-09T21:39:12.804Z,12.30
2023-04-09T21:42:16.852Z,10.80
2023-04-09T21:45:21.711Z,12.40
2023-04-09T21:48:26.570Z,15.60
2023-04-09T21:51:30.585Z,10.80
2023-04-09T21:54:34.704Z,10.00
2023-04-09T21:57:38.596Z,10.60
2023-04-09T22:00:43.162Z,11.50
2023-04-09T22:06:51.077Z,18.20
2023-04-09T22:09:56.833Z,12.70
2023-04-09T22:13:01.270Z,14.20
2023-04-09T22:19:09.533Z,14.30
2023-04-09T22:22:15.250Z,14.90
2023-04-09T22:25:19.387Z,11.30
2023-04-09T22:28:24.207Z,9.70
2023-04-09T22:31:28.301Z,9.90
2023-04-09T22:34:32.436Z,13.30
2023-04-09T22:37:36.471Z,18.50
2023-04-09T22:40:40.563Z,14.20
2023-04-09T22:43:44.702Z,12.30
2023-04-09T22:46:48.769Z,15.10
2023-04-09T22:49:54.900Z,13.60
2023-04-09T22:53:00.417Z,14.50
2023-04-09T22:56:04.643Z,16.40
2023-04-09T22:59:08.665Z,26.20
2023-04-09T23:02:12.887Z,19.60
2023-04-09T23:05:17.899Z,26.10
2023-04-09T23:08:21.831Z,28.80
2023-04-09T23:11:27.380Z,21.80
2023-04-09T23:14:31.333Z,38.20
2023-04-09T23:17:35.419Z,36.40
2023-04-09T23:20:39.428Z,41.10
2023-04-09T23:23:43.436Z,26.50
2023-04-09T23:26:47.659Z,33.90
2023-04-09T23:29:51.881Z,32.80
2023-04-09T23:32:57.511Z,25.20
2023-04-09T23:36:01.852Z,21.90
2023-04-09T23:39:06.286Z,18.70
2023-04-09T23:42:10.503Z,22.90
2023-04-09T23:45:14.825Z,23.60
2023-04-09T23:48:18.806Z,22.00
2023-04-09T23:51:22.861Z,19.10
2023-04-09T23:54:27.181Z,17.80
2023-04-09T23:57:31.204Z,21.10
